Beaufort MCAS - Merritt Field Beaufort US
ICAO: KNBC
IATA: NBC
Category: Medium
Scheduled Services: No

Elevation: 37 ft
TransAlt. 18000 ft.

Airport Communications:
APP/DEP:118.45
ATIS:27.8
GND/CLNC DEL:128.15
BASE OPS:28.18
PMSV METRO:26.45
TWR:119.05

KNBC Zoom In..

If Map Doesn't Load, Click Here

Runways:

(A) RW 05 length 12202 ft width 200 ft
---- / hdg 47

(B) RW 14 length 7999 ft width 200 ft
---- / hdg 140

(C) RW 23 length 12202 ft width 200 ft
---- / hdg 227

(D) RW 32 length 7999 ft width 200 ft
---- / hdg 320

Location; KNBC
Day. 26 / Time. 09.56 Zulu
* Altimeter: 30.09
* Temperature: 23° c. 73.4°f.
* Wind from: 250° Speed 03 kn.
Dewpoint: 23° c.
Visibility: 10 Statute Miles.
Clouds: Clear (automated report).

KNBC 260956Z 25003KT 10SM CLR 23/23 A3009 RMK AO2 SLP189 FIRST T02280228


Wind From 250°
Speed 03 kn.

 
 
jpsmedia.com for Web Design worldairports.se 2018   terms of use